Portada
METAR-TAF:

METAR-TAF

Aeroports :

Whiteman Airport

Los Angeles, Califòrnia, Estats Units d'Amèrica

latitud: 34-15N, longitud: 118-24W, altitud: 306 m

Observació

L'informe es va fer fa 12 hores i 0 minuts, a les 02:55 UTC
Vent 5 kt del Sud/Sud-Est
Temperatura 18°C
Humitat 64%
Pressió 1016 hPa
Visibilitat: 16.1 km
Cel clar

METAR: KWHP 270255Z 15005KT 10SM SKC 18/11 A3000

Hora: 07:55 (14:55 UTC)


TAF: manca

Observacions i pronòstics meteorològics de més de 4000 aeroports (METAR i TAF).

Les estacions disponibles són els punts grocs i vermells al mapa.

Posi el ratolí al punt desitjat per veure el nom de l'estació.

Feu clic per veure les observacions i els pronòstics meteorològics.

Per canviar el mapa: feu clic els botons verds amb una creu de color negre per apropar; al botó verd amb un guió per allunyar la imatge; o en les fletxes verdes per a mapes adjacents.


METAR-TAF: